Terminal Aerodrome Forecast
Issued by NWS

Home | Current Version | Previous Version | Text Only | Print | Product List | Glossary On
Versions: 1 2 3 4 5 6 7 8 9 10 11 12 13 14 15
000
FTUS43 KSGF 231700
TAFJLN
TAF
KJLN 231725Z 2318/2418 02010KT 6SM HZ BKN012 OVC200
      TEMPO 2318/2320 30025G35KT 3SM TSRA BR BKN035CB
     FM232000 02010KT P6SM FEW020 SCT200
     FM240000 05005KT P6SM SKC
      TEMPO 2409/2413 5SM BR=

USA.gov is the U.S. government's official web portal to all federal, state and local government web resources and services.